Overview Statistics Trail Chart Weather Telemetry Raw packets
 

This is the latest recevied weather packets stored in our database for station/object HA2SKA-1. If no packets are shown the sender has not sent any weather packets the latest 10 day(s).

<< 10 11 12 13 14 15 16 >>
Time Temp. Humidity Pressure Rain* Wind** Luminosity Snow
1788400209 23.33° C 75% 1021.9 hPa - - - -
1788399309 23.33° C 75% 1021.9 hPa - - - -
1788398409 22.78° C 78% 1021.8 hPa - - - -
1788397509 22.78° C 74% 1021.9 hPa - - - -
1788396609 21.11° C 87% 1021.8 hPa - - - -
1788395709 21.11° C 92% 1021.8 hPa - - - -
1788394809 22.22° C 82% 1021.7 hPa - - - -
1788393909 21.67° C 88% 1021.5 hPa - - - -
1788393008 21.11° C 93% 1021.5 hPa - - - -
1788392108 22.22° C 86% 1021.5 hPa - - - -
1788391208 21.67° C 91% 1021.6 hPa - - - -
1788390308 21.67° C 93% 1021.7 hPa - - - -
1788389408 22.22° C 88% 1021.8 hPa - - - -
1788388508 21.67° C 92% 1021.8 hPa - - - -
1788387608 21.11° C 97% 1021.7 hPa - - - -
1788386708 21.11° C 98% 1021.7 hPa - - - -
1788385808 23.33° C 82% 1021.8 hPa - - - -
1788384908 23.89° C 75% 1021.6 hPa - - - -
1788384007 22.78° C 84% 1021.5 hPa - - - -
1788383107 21.11° C 94% 1021.6 hPa - - - -
1788382207 22.78° C 81% 1021.6 hPa - - - -
1788381307 22.78° C 80% 1021.5 hPa - - - -
1788380407 21.67° C 86% 1021.4 hPa - - - -
1788379507 21.67° C 87% 1021.4 hPa - - - -
1788378607 22.78° C 84% 1021.3 hPa - - - -

* Rain since midnight (hover to see other rain measurements)
** Current wind speed in m/s (hover to see current wind gust speed)